sensor_id;sensor_type;location;lat;lon;timestamp;P1;durP1;ratioP1;P2;durP2;ratioP2
673;SDS011;319;48.764;9.174;2023-01-06T00:00:31;1.40;;;1.40;;
673;SDS011;319;48.764;9.174;2023-01-06T00:03:00;1.40;;;1.40;;
673;SDS011;319;48.764;9.174;2023-01-06T00:05:27;1.50;;;1.50;;
673;SDS011;319;48.764;9.174;2023-01-06T00:07:54;1.50;;;1.50;;
673;SDS011;319;48.764;9.174;2023-01-06T00:10:21;1.47;;;1.47;;
673;SDS011;319;48.764;9.174;2023-01-06T00:12:50;1.40;;;1.40;;
673;SDS011;319;48.764;9.174;2023-01-06T00:15:17;1.50;;;1.50;;
673;SDS011;319;48.764;9.174;2023-01-06T00:17:44;1.40;;;1.40;;
673;SDS011;319;48.764;9.174;2023-01-06T00:20:12;1.60;;;1.60;;
673;SDS011;319;48.764;9.174;2023-01-06T00:22:39;1.40;;;1.40;;
673;SDS011;319;48.764;9.174;2023-01-06T00:25:07;1.50;;;1.50;;
673;SDS011;319;48.764;9.174;2023-01-06T00:27:35;1.60;;;1.60;;
673;SDS011;319;48.764;9.174;2023-01-06T00:30:03;1.50;;;1.50;;
673;SDS011;319;48.764;9.174;2023-01-06T00:32:30;1.47;;;1.47;;
673;SDS011;319;48.764;9.174;2023-01-06T00:34:57;1.50;;;1.50;;
673;SDS011;319;48.764;9.174;2023-01-06T00:37:25;1.50;;;1.50;;
673;SDS011;319;48.764;9.174;2023-01-06T00:39:52;1.50;;;1.50;;
673;SDS011;319;48.764;9.174;2023-01-06T00:42:19;1.60;;;1.60;;
673;SDS011;319;48.764;9.174;2023-01-06T00:44:48;1.40;;;1.40;;
673;SDS011;319;48.764;9.174;2023-01-06T00:47:15;1.57;;;1.57;;
673;SDS011;319;48.764;9.174;2023-01-06T00:49:43;1.50;;;1.50;;
673;SDS011;319;48.764;9.174;2023-01-06T00:52:10;1.50;;;1.50;;
673;SDS011;319;48.764;9.174;2023-01-06T00:54:38;1.40;;;1.40;;
673;SDS011;319;48.764;9.174;2023-01-06T00:57:05;1.50;;;1.50;;
673;SDS011;319;48.764;9.174;2023-01-06T00:59:33;1.50;;;1.50;;
673;SDS011;319;48.764;9.174;2023-01-06T01:02:00;1.40;;;1.40;;
673;SDS011;319;48.764;9.174;2023-01-06T01:04:31;1.50;;;1.50;;
673;SDS011;319;48.764;9.174;2023-01-06T01:06:58;1.50;;;1.50;;
673;SDS011;319;48.764;9.174;2023-01-06T01:09:26;1.50;;;1.50;;
673;SDS011;319;48.764;9.174;2023-01-06T01:11:56;1.50;;;1.50;;
673;SDS011;319;48.764;9.174;2023-01-06T01:14:36;1.40;;;1.40;;
673;SDS011;319;48.764;9.174;2023-01-06T01:17:03;1.40;;;1.40;;
673;SDS011;319;48.764;9.174;2023-01-06T01:19:30;1.50;;;1.50;;
673;SDS011;319;48.764;9.174;2023-01-06T01:21:57;1.40;;;1.40;;
673;SDS011;319;48.764;9.174;2023-01-06T01:24:24;1.60;;;1.60;;
673;SDS011;319;48.764;9.174;2023-01-06T01:26:51;1.50;;;1.50;;
673;SDS011;319;48.764;9.174;2023-01-06T01:29:19;1.50;;;1.50;;
673;SDS011;319;48.764;9.174;2023-01-06T01:31:46;1.50;;;1.50;;
673;SDS011;319;48.764;9.174;2023-01-06T01:34:13;1.50;;;1.50;;
673;SDS011;319;48.764;9.174;2023-01-06T01:36:42;1.40;;;1.40;;
673;SDS011;319;48.764;9.174;2023-01-06T01:39:10;1.40;;;1.40;;
673;SDS011;319;48.764;9.174;2023-01-06T01:41:38;1.40;;;1.40;;
673;SDS011;319;48.764;9.174;2023-01-06T01:47:06;1.40;;;1.40;;
673;SDS011;319;48.764;9.174;2023-01-06T01:49:35;1.40;;;1.40;;
673;SDS011;319;48.764;9.174;2023-01-06T01:52:04;1.40;;;1.40;;
673;SDS011;319;48.764;9.174;2023-01-06T01:54:33;1.50;;;1.50;;
673;SDS011;319;48.764;9.174;2023-01-06T01:57:02;1.50;;;1.50;;
673;SDS011;319;48.764;9.174;2023-01-06T01:59:31;1.40;;;1.40;;
673;SDS011;319;48.764;9.174;2023-01-06T02:01:59;1.30;;;1.30;;
673;SDS011;319;48.764;9.174;2023-01-06T02:04:28;1.40;;;1.40;;
673;SDS011;319;48.764;9.174;2023-01-06T02:07:00;1.50;;;1.50;;
673;SDS011;319;48.764;9.174;2023-01-06T02:09:29;1.40;;;1.40;;
673;SDS011;319;48.764;9.174;2023-01-06T02:11:59;1.50;;;1.50;;
673;SDS011;319;48.764;9.174;2023-01-06T02:14:27;1.40;;;1.40;;
673;SDS011;319;48.764;9.174;2023-01-06T02:16:59;1.50;;;1.50;;
673;SDS011;319;48.764;9.174;2023-01-06T02:19:45;1.47;;;1.47;;
673;SDS011;319;48.764;9.174;2023-01-06T02:22:47;1.50;;;1.50;;
673;SDS011;319;48.764;9.174;2023-01-06T02:25:35;1.57;;;1.57;;
673;SDS011;319;48.764;9.174;2023-01-06T02:31:33;1.50;;;1.50;;
673;SDS011;319;48.764;9.174;2023-01-06T02:34:25;1.50;;;1.50;;
673;SDS011;319;48.764;9.174;2023-01-06T02:37:05;1.50;;;1.50;;
673;SDS011;319;48.764;9.174;2023-01-06T02:39:42;1.40;;;1.40;;
673;SDS011;319;48.764;9.174;2023-01-06T02:42:32;1.50;;;1.50;;
673;SDS011;319;48.764;9.174;2023-01-06T02:45:13;1.60;;;1.60;;
673;SDS011;319;48.764;9.174;2023-01-06T02:47:47;1.50;;;1.50;;
673;SDS011;319;48.764;9.174;2023-01-06T02:50:20;1.60;;;1.60;;
673;SDS011;319;48.764;9.174;2023-01-06T02:52:52;1.50;;;1.50;;
673;SDS011;319;48.764;9.174;2023-01-06T02:55:28;1.40;;;1.40;;
673;SDS011;319;48.764;9.174;2023-01-06T02:58:00;1.50;;;1.50;;
673;SDS011;319;48.764;9.174;2023-01-06T03:00:32;1.50;;;1.50;;
673;SDS011;319;48.764;9.174;2023-01-06T03:03:02;1.50;;;1.50;;
673;SDS011;319;48.764;9.174;2023-01-06T03:05:34;1.60;;;1.60;;
673;SDS011;319;48.764;9.174;2023-01-06T03:08:03;1.50;;;1.50;;
673;SDS011;319;48.764;9.174;2023-01-06T03:10:33;1.50;;;1.50;;
673;SDS011;319;48.764;9.174;2023-01-06T03:13:03;1.43;;;1.43;;
673;SDS011;319;48.764;9.174;2023-01-06T03:15:34;1.57;;;1.57;;
673;SDS011;319;48.764;9.174;2023-01-06T03:18:02;1.60;;;1.60;;
673;SDS011;319;48.764;9.174;2023-01-06T03:20:29;1.50;;;1.50;;
673;SDS011;319;48.764;9.174;2023-01-06T03:22:56;1.50;;;1.50;;
673;SDS011;319;48.764;9.174;2023-01-06T03:25:23;1.60;;;1.60;;
673;SDS011;319;48.764;9.174;2023-01-06T03:27:51;1.60;;;1.60;;
673;SDS011;319;48.764;9.174;2023-01-06T03:30:24;1.60;;;1.60;;
673;SDS011;319;48.764;9.174;2023-01-06T03:32:55;1.60;;;1.60;;
673;SDS011;319;48.764;9.174;2023-01-06T03:35:30;1.60;;;1.60;;
673;SDS011;319;48.764;9.174;2023-01-06T03:38:08;1.60;;;1.60;;
673;SDS011;319;48.764;9.174;2023-01-06T03:40:43;1.60;;;1.60;;
673;SDS011;319;48.764;9.174;2023-01-06T03:43:19;1.70;;;1.70;;
673;SDS011;319;48.764;9.174;2023-01-06T03:45:55;1.60;;;1.60;;
673;SDS011;319;48.764;9.174;2023-01-06T03:48:32;1.50;;;1.50;;
673;SDS011;319;48.764;9.174;2023-01-06T03:51:08;1.60;;;1.60;;
673;SDS011;319;48.764;9.174;2023-01-06T03:53:44;1.53;;;1.53;;
673;SDS011;319;48.764;9.174;2023-01-06T03:56:16;1.60;;;1.60;;
673;SDS011;319;48.764;9.174;2023-01-06T03:58:48;1.47;;;1.47;;
673;SDS011;319;48.764;9.174;2023-01-06T04:01:18;1.50;;;1.50;;
673;SDS011;319;48.764;9.174;2023-01-06T04:03:47;1.47;;;1.47;;
673;SDS011;319;48.764;9.174;2023-01-06T04:06:18;1.60;;;1.60;;
673;SDS011;319;48.764;9.174;2023-01-06T04:08:48;1.30;;;1.30;;
673;SDS011;319;48.764;9.174;2023-01-06T04:11:15;1.50;;;1.50;;
673;SDS011;319;48.764;9.174;2023-01-06T04:13:55;1.50;;;1.50;;
673;SDS011;319;48.764;9.174;2023-01-06T04:16:22;1.40;;;1.40;;
673;SDS011;319;48.764;9.174;2023-01-06T04:18:49;1.50;;;1.50;;
673;SDS011;319;48.764;9.174;2023-01-06T04:21:16;1.50;;;1.50;;
673;SDS011;319;48.764;9.174;2023-01-06T04:23:44;1.63;;;1.63;;
673;SDS011;319;48.764;9.174;2023-01-06T04:26:11;1.50;;;1.50;;
673;SDS011;319;48.764;9.174;2023-01-06T04:28:37;1.40;;;1.40;;
673;SDS011;319;48.764;9.174;2023-01-06T04:31:04;1.40;;;1.40;;
673;SDS011;319;48.764;9.174;2023-01-06T04:33:33;1.50;;;1.50;;
673;SDS011;319;48.764;9.174;2023-01-06T04:35:59;1.40;;;1.40;;
673;SDS011;319;48.764;9.174;2023-01-06T04:38:26;1.50;;;1.50;;
673;SDS011;319;48.764;9.174;2023-01-06T04:40:54;1.37;;;1.37;;
673;SDS011;319;48.764;9.174;2023-01-06T04:43:21;1.50;;;1.50;;
673;SDS011;319;48.764;9.174;2023-01-06T04:45:48;1.50;;;1.50;;
673;SDS011;319;48.764;9.174;2023-01-06T04:48:18;1.50;;;1.50;;
673;SDS011;319;48.764;9.174;2023-01-06T04:50:45;1.90;;;1.90;;
673;SDS011;319;48.764;9.174;2023-01-06T04:53:11;1.60;;;1.60;;
673;SDS011;319;48.764;9.174;2023-01-06T04:55:38;2.00;;;2.00;;
673;SDS011;319;48.764;9.174;2023-01-06T04:58:07;1.90;;;1.90;;
673;SDS011;319;48.764;9.174;2023-01-06T05:00:33;1.90;;;1.90;;
673;SDS011;319;48.764;9.174;2023-01-06T05:03:00;1.80;;;1.80;;
673;SDS011;319;48.764;9.174;2023-01-06T05:05:27;2.30;;;2.30;;
673;SDS011;319;48.764;9.174;2023-01-06T05:07:54;3.10;;;3.00;;
673;SDS011;319;48.764;9.174;2023-01-06T05:10:21;1.90;;;1.90;;
673;SDS011;319;48.764;9.174;2023-01-06T05:12:48;1.70;;;1.70;;
673;SDS011;319;48.764;9.174;2023-01-06T05:15:16;1.50;;;1.50;;
673;SDS011;319;48.764;9.174;2023-01-06T05:17:45;1.50;;;1.50;;
673;SDS011;319;48.764;9.174;2023-01-06T05:20:12;1.50;;;1.50;;
673;SDS011;319;48.764;9.174;2023-01-06T05:22:39;1.50;;;1.50;;
673;SDS011;319;48.764;9.174;2023-01-06T05:25:06;1.47;;;1.47;;
673;SDS011;319;48.764;9.174;2023-01-06T05:27:33;1.53;;;1.53;;
673;SDS011;319;48.764;9.174;2023-01-06T05:30:00;1.50;;;1.50;;
673;SDS011;319;48.764;9.174;2023-01-06T05:32:28;1.50;;;1.50;;
673;SDS011;319;48.764;9.174;2023-01-06T05:34:54;1.60;;;1.60;;
673;SDS011;319;48.764;9.174;2023-01-06T05:37:21;1.60;;;1.60;;
673;SDS011;319;48.764;9.174;2023-01-06T05:39:48;1.60;;;1.60;;
673;SDS011;319;48.764;9.174;2023-01-06T05:42:15;1.67;;;1.67;;
673;SDS011;319;48.764;9.174;2023-01-06T05:44:42;1.60;;;1.60;;
673;SDS011;319;48.764;9.174;2023-01-06T05:47:09;1.50;;;1.50;;
673;SDS011;319;48.764;9.174;2023-01-06T05:49:37;1.60;;;1.60;;
673;SDS011;319;48.764;9.174;2023-01-06T05:52:03;1.50;;;1.50;;
673;SDS011;319;48.764;9.174;2023-01-06T05:54:30;1.50;;;1.50;;
673;SDS011;319;48.764;9.174;2023-01-06T05:56:57;1.50;;;1.50;;
673;SDS011;319;48.764;9.174;2023-01-06T05:59:23;1.40;;;1.40;;
673;SDS011;319;48.764;9.174;2023-01-06T06:01:50;4.03;;;3.83;;
673;SDS011;319;48.764;9.174;2023-01-06T06:04:17;1.43;;;1.43;;
673;SDS011;319;48.764;9.174;2023-01-06T06:06:45;1.60;;;1.60;;
673;SDS011;319;48.764;9.174;2023-01-06T06:09:12;1.60;;;1.60;;
673;SDS011;319;48.764;9.174;2023-01-06T06:11:38;1.50;;;1.50;;
673;SDS011;319;48.764;9.174;2023-01-06T06:14:07;1.60;;;1.60;;
673;SDS011;319;48.764;9.174;2023-01-06T06:16:34;1.60;;;1.60;;
673;SDS011;319;48.764;9.174;2023-01-06T06:19:01;1.60;;;1.60;;
673;SDS011;319;48.764;9.174;2023-01-06T06:21:29;1.50;;;1.50;;
673;SDS011;319;48.764;9.174;2023-01-06T06:23:57;1.50;;;1.50;;
673;SDS011;319;48.764;9.174;2023-01-06T06:26:24;1.57;;;1.57;;
673;SDS011;319;48.764;9.174;2023-01-06T06:28:52;1.50;;;1.50;;
673;SDS011;319;48.764;9.174;2023-01-06T06:31:20;1.50;;;1.50;;
673;SDS011;319;48.764;9.174;2023-01-06T06:33:48;1.50;;;1.50;;
673;SDS011;319;48.764;9.174;2023-01-06T06:36:16;1.50;;;1.50;;
673;SDS011;319;48.764;9.174;2023-01-06T06:38:43;1.50;;;1.50;;
673;SDS011;319;48.764;9.174;2023-01-06T06:41:12;1.50;;;1.50;;
673;SDS011;319;48.764;9.174;2023-01-06T06:43:39;1.40;;;1.40;;
673;SDS011;319;48.764;9.174;2023-01-06T06:46:06;1.60;;;1.60;;
673;SDS011;319;48.764;9.174;2023-01-06T06:48:34;1.40;;;1.40;;
673;SDS011;319;48.764;9.174;2023-01-06T06:51:01;1.40;;;1.40;;
673;SDS011;319;48.764;9.174;2023-01-06T06:53:31;1.50;;;1.50;;
673;SDS011;319;48.764;9.174;2023-01-06T06:55:58;1.60;;;1.60;;
673;SDS011;319;48.764;9.174;2023-01-06T06:58:26;1.40;;;1.40;;
673;SDS011;319;48.764;9.174;2023-01-06T07:00:53;1.40;;;1.40;;
673;SDS011;319;48.764;9.174;2023-01-06T07:03:20;1.70;;;1.70;;
673;SDS011;319;48.764;9.174;2023-01-06T07:05:47;1.50;;;1.50;;
673;SDS011;319;48.764;9.174;2023-01-06T07:08:15;1.60;;;1.60;;
673;SDS011;319;48.764;9.174;2023-01-06T07:10:42;1.67;;;1.67;;
673;SDS011;319;48.764;9.174;2023-01-06T07:13:09;1.60;;;1.60;;
673;SDS011;319;48.764;9.174;2023-01-06T07:15:37;1.60;;;1.60;;
673;SDS011;319;48.764;9.174;2023-01-06T07:18:05;1.70;;;1.70;;
673;SDS011;319;48.764;9.174;2023-01-06T07:20:32;1.60;;;1.60;;
673;SDS011;319;48.764;9.174;2023-01-06T07:23:00;1.70;;;1.70;;
673;SDS011;319;48.764;9.174;2023-01-06T07:25:27;1.50;;;1.50;;
673;SDS011;319;48.764;9.174;2023-01-06T07:27:54;1.60;;;1.60;;
673;SDS011;319;48.764;9.174;2023-01-06T07:30:21;1.60;;;1.60;;
673;SDS011;319;48.764;9.174;2023-01-06T07:32:49;1.50;;;1.50;;
673;SDS011;319;48.764;9.174;2023-01-06T07:35:16;1.50;;;1.50;;
673;SDS011;319;48.764;9.174;2023-01-06T07:37:44;1.50;;;1.50;;
673;SDS011;319;48.764;9.174;2023-01-06T07:40:11;1.50;;;1.50;;
673;SDS011;319;48.764;9.174;2023-01-06T07:42:38;1.60;;;1.60;;
673;SDS011;319;48.764;9.174;2023-01-06T07:45:05;1.70;;;1.70;;
673;SDS011;319;48.764;9.174;2023-01-06T07:47:33;1.50;;;1.50;;
673;SDS011;319;48.764;9.174;2023-01-06T07:50:01;1.50;;;1.50;;
673;SDS011;319;48.764;9.174;2023-01-06T07:52:29;1.60;;;1.60;;
673;SDS011;319;48.764;9.174;2023-01-06T07:54:56;1.60;;;1.60;;
673;SDS011;319;48.764;9.174;2023-01-06T07:57:23;1.60;;;1.60;;
673;SDS011;319;48.764;9.174;2023-01-06T07:59:50;1.70;;;1.70;;
673;SDS011;319;48.764;9.174;2023-01-06T08:02:17;1.60;;;1.60;;
673;SDS011;319;48.764;9.174;2023-01-06T08:04:44;1.67;;;1.67;;
673;SDS011;319;48.764;9.174;2023-01-06T08:07:12;1.60;;;1.60;;
673;SDS011;319;48.764;9.174;2023-01-06T08:09:40;1.50;;;1.50;;
673;SDS011;319;48.764;9.174;2023-01-06T08:12:07;1.40;;;1.40;;
673;SDS011;319;48.764;9.174;2023-01-06T08:14:33;1.40;;;1.40;;
673;SDS011;319;48.764;9.174;2023-01-06T08:17:01;1.30;;;1.30;;
673;SDS011;319;48.764;9.174;2023-01-06T08:19:27;1.30;;;1.30;;
673;SDS011;319;48.764;9.174;2023-01-06T08:21:55;1.40;;;1.40;;
673;SDS011;319;48.764;9.174;2023-01-06T08:24:23;1.30;;;1.30;;
673;SDS011;319;48.764;9.174;2023-01-06T08:26:50;1.30;;;1.30;;
673;SDS011;319;48.764;9.174;2023-01-06T08:29:17;1.30;;;1.30;;
673;SDS011;319;48.764;9.174;2023-01-06T08:31:43;1.33;;;1.33;;
673;SDS011;319;48.764;9.174;2023-01-06T08:34:10;1.30;;;1.30;;
673;SDS011;319;48.764;9.174;2023-01-06T08:36:38;1.10;;;1.10;;
673;SDS011;319;48.764;9.174;2023-01-06T08:39:07;1.27;;;1.27;;
673;SDS011;319;48.764;9.174;2023-01-06T08:41:35;1.40;;;1.40;;
673;SDS011;319;48.764;9.174;2023-01-06T08:44:02;1.30;;;1.30;;
673;SDS011;319;48.764;9.174;2023-01-06T08:46:29;1.37;;;1.37;;
673;SDS011;319;48.764;9.174;2023-01-06T08:48:57;1.20;;;1.20;;
673;SDS011;319;48.764;9.174;2023-01-06T08:51:24;1.30;;;1.30;;
673;SDS011;319;48.764;9.174;2023-01-06T08:53:52;1.30;;;1.30;;
673;SDS011;319;48.764;9.174;2023-01-06T08:56:20;1.30;;;1.30;;
673;SDS011;319;48.764;9.174;2023-01-06T08:58:51;1.30;;;1.30;;
673;SDS011;319;48.764;9.174;2023-01-06T09:01:19;1.20;;;1.20;;
673;SDS011;319;48.764;9.174;2023-01-06T09:03:48;1.20;;;1.20;;
673;SDS011;319;48.764;9.174;2023-01-06T09:06:15;1.30;;;1.30;;
673;SDS011;319;48.764;9.174;2023-01-06T09:08:47;1.20;;;1.20;;
673;SDS011;319;48.764;9.174;2023-01-06T09:11:16;1.20;;;1.20;;
673;SDS011;319;48.764;9.174;2023-01-06T09:13:44;1.30;;;1.30;;
673;SDS011;319;48.764;9.174;2023-01-06T09:16:13;1.20;;;1.20;;
673;SDS011;319;48.764;9.174;2023-01-06T09:18:39;1.30;;;1.30;;
673;SDS011;319;48.764;9.174;2023-01-06T09:21:13;1.40;;;1.40;;
673;SDS011;319;48.764;9.174;2023-01-06T09:23:42;1.33;;;1.33;;
673;SDS011;319;48.764;9.174;2023-01-06T09:26:09;1.30;;;1.30;;
673;SDS011;319;48.764;9.174;2023-01-06T09:28:36;1.30;;;1.30;;
673;SDS011;319;48.764;9.174;2023-01-06T09:31:03;1.40;;;1.40;;
673;SDS011;319;48.764;9.174;2023-01-06T09:33:31;1.40;;;1.40;;
673;SDS011;319;48.764;9.174;2023-01-06T09:35:58;1.40;;;1.40;;
673;SDS011;319;48.764;9.174;2023-01-06T09:38:25;1.40;;;1.40;;
673;SDS011;319;48.764;9.174;2023-01-06T09:41:00;1.40;;;1.40;;
673;SDS011;319;48.764;9.174;2023-01-06T09:43:45;1.40;;;1.40;;
673;SDS011;319;48.764;9.174;2023-01-06T09:46:16;1.40;;;1.40;;
673;SDS011;319;48.764;9.174;2023-01-06T09:48:53;1.20;;;1.20;;
673;SDS011;319;48.764;9.174;2023-01-06T09:51:24;1.40;;;1.40;;
673;SDS011;319;48.764;9.174;2023-01-06T09:53:53;1.50;;;1.50;;
673;SDS011;319;48.764;9.174;2023-01-06T09:56:23;1.50;;;1.50;;
673;SDS011;319;48.764;9.174;2023-01-06T09:58:52;1.70;;;1.70;;
673;SDS011;319;48.764;9.174;2023-01-06T10:01:27;1.50;;;1.50;;
673;SDS011;319;48.764;9.174;2023-01-06T10:03:58;1.50;;;1.50;;
673;SDS011;319;48.764;9.174;2023-01-06T10:06:28;1.70;;;1.70;;
673;SDS011;319;48.764;9.174;2023-01-06T10:09:03;1.70;;;1.70;;
673;SDS011;319;48.764;9.174;2023-01-06T10:11:38;1.80;;;1.80;;
673;SDS011;319;48.764;9.174;2023-01-06T10:14:16;2.00;;;2.00;;
673;SDS011;319;48.764;9.174;2023-01-06T10:16:51;1.90;;;1.90;;
673;SDS011;319;48.764;9.174;2023-01-06T10:19:34;2.30;;;2.30;;
673;SDS011;319;48.764;9.174;2023-01-06T10:22:14;1.90;;;1.90;;
673;SDS011;319;48.764;9.174;2023-01-06T10:24:48;1.90;;;1.90;;
673;SDS011;319;48.764;9.174;2023-01-06T10:27:21;1.83;;;1.83;;
673;SDS011;319;48.764;9.174;2023-01-06T10:29:53;1.73;;;1.73;;
673;SDS011;319;48.764;9.174;2023-01-06T10:32:21;5.97;;;5.87;;
673;SDS011;319;48.764;9.174;2023-01-06T10:34:56;1.90;;;1.90;;
673;SDS011;319;48.764;9.174;2023-01-06T10:37:26;2.00;;;2.00;;
673;SDS011;319;48.764;9.174;2023-01-06T10:40:02;2.07;;;2.07;;
673;SDS011;319;48.764;9.174;2023-01-06T10:42:42;2.10;;;2.10;;
673;SDS011;319;48.764;9.174;2023-01-06T10:45:28;2.10;;;2.10;;
673;SDS011;319;48.764;9.174;2023-01-06T10:47:59;2.13;;;2.13;;
673;SDS011;319;48.764;9.174;2023-01-06T10:50:28;2.20;;;2.20;;
673;SDS011;319;48.764;9.174;2023-01-06T10:52:55;2.40;;;2.40;;
673;SDS011;319;48.764;9.174;2023-01-06T10:55:28;2.50;;;2.50;;
673;SDS011;319;48.764;9.174;2023-01-06T10:58:01;2.90;;;2.80;;
673;SDS011;319;48.764;9.174;2023-01-06T11:00:35;2.83;;;2.73;;
673;SDS011;319;48.764;9.174;2023-01-06T11:03:03;2.60;;;2.60;;
673;SDS011;319;48.764;9.174;2023-01-06T11:05:32;2.27;;;2.27;;
673;SDS011;319;48.764;9.174;2023-01-06T11:08:02;2.60;;;2.60;;
673;SDS011;319;48.764;9.174;2023-01-06T11:10:34;2.70;;;2.70;;
673;SDS011;319;48.764;9.174;2023-01-06T11:13:03;2.60;;;2.60;;
673;SDS011;319;48.764;9.174;2023-01-06T11:15:35;2.60;;;2.60;;
673;SDS011;319;48.764;9.174;2023-01-06T11:18:04;2.30;;;2.30;;
673;SDS011;319;48.764;9.174;2023-01-06T11:20:44;2.80;;;2.80;;
673;SDS011;319;48.764;9.174;2023-01-06T11:23:13;2.70;;;2.70;;
673;SDS011;319;48.764;9.174;2023-01-06T11:25:52;2.50;;;2.50;;
673;SDS011;319;48.764;9.174;2023-01-06T11:28:26;2.90;;;2.80;;
673;SDS011;319;48.764;9.174;2023-01-06T11:30:56;2.80;;;2.80;;
673;SDS011;319;48.764;9.174;2023-01-06T11:33:28;3.30;;;3.20;;
673;SDS011;319;48.764;9.174;2023-01-06T11:35:58;3.30;;;3.20;;
673;SDS011;319;48.764;9.174;2023-01-06T11:38:39;3.00;;;2.90;;
673;SDS011;319;48.764;9.174;2023-01-06T11:41:08;4.80;;;4.70;;
673;SDS011;319;48.764;9.174;2023-01-06T11:43:36;4.17;;;4.07;;
673;SDS011;319;48.764;9.174;2023-01-06T11:46:07;4.10;;;4.00;;
673;SDS011;319;48.764;9.174;2023-01-06T11:48:39;3.30;;;3.20;;
673;SDS011;319;48.764;9.174;2023-01-06T11:51:10;7.20;;;7.00;;
673;SDS011;319;48.764;9.174;2023-01-06T11:53:37;6.60;;;6.40;;
673;SDS011;319;48.764;9.174;2023-01-06T11:56:05;6.30;;;6.20;;
673;SDS011;319;48.764;9.174;2023-01-06T11:58:45;7.33;;;7.13;;
673;SDS011;319;48.764;9.174;2023-01-06T12:01:19;8.90;;;8.70;;
673;SDS011;319;48.764;9.174;2023-01-06T12:03:54;7.70;;;7.50;;
673;SDS011;319;48.764;9.174;2023-01-06T12:06:32;8.30;;;8.10;;
673;SDS011;319;48.764;9.174;2023-01-06T12:11:48;7.90;;;7.70;;
673;SDS011;319;48.764;9.174;2023-01-06T12:14:16;7.93;;;7.73;;
673;SDS011;319;48.764;9.174;2023-01-06T12:16:48;8.00;;;7.80;;
673;SDS011;319;48.764;9.174;2023-01-06T12:19:24;5.97;;;5.87;;
673;SDS011;319;48.764;9.174;2023-01-06T12:21:57;9.90;;;9.70;;
673;SDS011;319;48.764;9.174;2023-01-06T12:24:25;9.50;;;9.30;;
673;SDS011;319;48.764;9.174;2023-01-06T12:26:53;8.03;;;7.83;;
673;SDS011;319;48.764;9.174;2023-01-06T12:29:21;8.90;;;8.70;;
673;SDS011;319;48.764;9.174;2023-01-06T12:31:52;9.80;;;9.60;;
673;SDS011;319;48.764;9.174;2023-01-06T12:34:27;9.23;;;9.03;;
673;SDS011;319;48.764;9.174;2023-01-06T12:37:01;8.80;;;8.60;;
673;SDS011;319;48.764;9.174;2023-01-06T12:39:39;8.27;;;8.07;;
673;SDS011;319;48.764;9.174;2023-01-06T12:42:16;9.80;;;9.60;;
673;SDS011;319;48.764;9.174;2023-01-06T12:44:49;11.67;;;11.37;;
673;SDS011;319;48.764;9.174;2023-01-06T12:47:22;11.50;;;11.20;;
673;SDS011;319;48.764;9.174;2023-01-06T12:49:52;9.00;;;8.80;;
673;SDS011;319;48.764;9.174;2023-01-06T12:52:25;11.17;;;10.87;;
673;SDS011;319;48.764;9.174;2023-01-06T12:54:57;12.17;;;11.87;;
673;SDS011;319;48.764;9.174;2023-01-06T12:57:30;11.50;;;11.20;;
673;SDS011;319;48.764;9.174;2023-01-06T13:00:17;11.30;;;11.00;;
673;SDS011;319;48.764;9.174;2023-01-06T13:02:55;11.40;;;11.10;;
673;SDS011;319;48.764;9.174;2023-01-06T13:05:42;10.90;;;10.60;;
673;SDS011;319;48.764;9.174;2023-01-06T13:08:36;4.80;;;4.70;;
673;SDS011;319;48.764;9.174;2023-01-06T13:11:17;6.30;;;6.20;;
673;SDS011;319;48.764;9.174;2023-01-06T13:13:54;5.90;;;5.80;;
673;SDS011;319;48.764;9.174;2023-01-06T13:16:30;5.70;;;5.60;;
673;SDS011;319;48.764;9.174;2023-01-06T13:19:11;5.17;;;5.07;;
673;SDS011;319;48.764;9.174;2023-01-06T13:21:46;4.60;;;4.50;;
673;SDS011;319;48.764;9.174;2023-01-06T13:24:20;3.10;;;3.00;;
673;SDS011;319;48.764;9.174;2023-01-06T13:27:13;2.60;;;2.60;;
673;SDS011;319;48.764;9.174;2023-01-06T13:29:56;3.20;;;3.10;;
673;SDS011;319;48.764;9.174;2023-01-06T13:32:38;3.30;;;3.20;;
673;SDS011;319;48.764;9.174;2023-01-06T13:35:22;3.37;;;3.27;;
673;SDS011;319;48.764;9.174;2023-01-06T13:38:09;2.83;;;2.80;;
673;SDS011;319;48.764;9.174;2023-01-06T13:40:47;3.60;;;3.50;;
673;SDS011;319;48.764;9.174;2023-01-06T13:43:17;3.40;;;3.30;;
673;SDS011;319;48.764;9.174;2023-01-06T13:45:47;3.00;;;2.90;;
673;SDS011;319;48.764;9.174;2023-01-06T13:48:18;2.20;;;2.20;;
673;SDS011;319;48.764;9.174;2023-01-06T13:50:49;2.33;;;2.33;;
673;SDS011;319;48.764;9.174;2023-01-06T13:53:17;2.20;;;2.20;;
673;SDS011;319;48.764;9.174;2023-01-06T13:55:48;2.13;;;2.13;;
673;SDS011;319;48.764;9.174;2023-01-06T13:58:48;2.30;;;2.30;;
673;SDS011;319;48.764;9.174;2023-01-06T14:01:29;2.30;;;2.30;;
673;SDS011;319;48.764;9.174;2023-01-06T14:06:58;2.20;;;2.20;;
673;SDS011;319;48.764;9.174;2023-01-06T14:09:26;2.27;;;2.27;;
673;SDS011;319;48.764;9.174;2023-01-06T14:11:57;2.30;;;2.30;;
673;SDS011;319;48.764;9.174;2023-01-06T14:14:34;2.20;;;2.20;;
673;SDS011;319;48.764;9.174;2023-01-06T14:17:24;2.40;;;2.40;;
673;SDS011;319;48.764;9.174;2023-01-06T14:19:54;2.30;;;2.30;;
673;SDS011;319;48.764;9.174;2023-01-06T14:22:22;2.40;;;2.40;;
673;SDS011;319;48.764;9.174;2023-01-06T14:24:54;2.20;;;2.20;;
673;SDS011;319;48.764;9.174;2023-01-06T14:30:32;2.50;;;2.50;;
673;SDS011;319;48.764;9.174;2023-01-06T14:35:53;2.40;;;2.40;;
673;SDS011;319;48.764;9.174;2023-01-06T14:38:28;2.40;;;2.40;;
673;SDS011;319;48.764;9.174;2023-01-06T14:40:58;2.30;;;2.30;;
673;SDS011;319;48.764;9.174;2023-01-06T14:43:35;2.60;;;2.60;;
673;SDS011;319;48.764;9.174;2023-01-06T14:46:12;2.30;;;2.30;;
673;SDS011;319;48.764;9.174;2023-01-06T14:48:51;2.50;;;2.50;;
673;SDS011;319;48.764;9.174;2023-01-06T14:51:23;2.40;;;2.40;;
673;SDS011;319;48.764;9.174;2023-01-06T14:53:55;2.50;;;2.50;;
673;SDS011;319;48.764;9.174;2023-01-06T14:56:28;2.50;;;2.50;;
673;SDS011;319;48.764;9.174;2023-01-06T14:59:03;2.40;;;2.40;;
673;SDS011;319;48.764;9.174;2023-01-06T15:01:37;2.40;;;2.40;;
673;SDS011;319;48.764;9.174;2023-01-06T15:04:17;2.50;;;2.50;;
673;SDS011;319;48.764;9.174;2023-01-06T15:06:57;2.50;;;2.50;;
673;SDS011;319;48.764;9.174;2023-01-06T15:09:41;2.60;;;2.60;;
673;SDS011;319;48.764;9.174;2023-01-06T15:12:22;2.60;;;2.60;;
673;SDS011;319;48.764;9.174;2023-01-06T15:14:50;2.60;;;2.60;;
673;SDS011;319;48.764;9.174;2023-01-06T15:17:18;2.40;;;2.40;;
673;SDS011;319;48.764;9.174;2023-01-06T15:19:46;2.40;;;2.40;;
673;SDS011;319;48.764;9.174;2023-01-06T15:22:16;2.37;;;2.37;;
673;SDS011;319;48.764;9.174;2023-01-06T15:24:49;2.40;;;2.40;;
673;SDS011;319;48.764;9.174;2023-01-06T15:27:16;2.20;;;2.20;;
673;SDS011;319;48.764;9.174;2023-01-06T15:29:47;2.30;;;2.30;;
673;SDS011;319;48.764;9.174;2023-01-06T15:32:15;2.50;;;2.50;;
673;SDS011;319;48.764;9.174;2023-01-06T15:34:44;2.40;;;2.40;;
673;SDS011;319;48.764;9.174;2023-01-06T15:37:15;2.37;;;2.37;;
673;SDS011;319;48.764;9.174;2023-01-06T15:39:47;2.20;;;2.20;;
673;SDS011;319;48.764;9.174;2023-01-06T15:42:30;2.57;;;2.57;;
673;SDS011;319;48.764;9.174;2023-01-06T15:45:04;2.67;;;2.67;;
673;SDS011;319;48.764;9.174;2023-01-06T15:47:35;2.50;;;2.50;;
673;SDS011;319;48.764;9.174;2023-01-06T15:50:08;2.40;;;2.40;;
673;SDS011;319;48.764;9.174;2023-01-06T15:52:43;2.20;;;2.20;;
673;SDS011;319;48.764;9.174;2023-01-06T15:55:18;2.40;;;2.40;;
673;SDS011;319;48.764;9.174;2023-01-06T15:57:53;2.30;;;2.30;;
673;SDS011;319;48.764;9.174;2023-01-06T16:00:24;2.50;;;2.50;;
673;SDS011;319;48.764;9.174;2023-01-06T16:02:53;2.30;;;2.30;;
673;SDS011;319;48.764;9.174;2023-01-06T16:08:21;2.30;;;2.30;;
673;SDS011;319;48.764;9.174;2023-01-06T16:13:35;2.30;;;2.30;;
673;SDS011;319;48.764;9.174;2023-01-06T16:16:03;2.40;;;2.40;;
673;SDS011;319;48.764;9.174;2023-01-06T16:18:34;2.00;;;2.00;;
673;SDS011;319;48.764;9.174;2023-01-06T16:21:13;2.00;;;2.00;;
673;SDS011;319;48.764;9.174;2023-01-06T16:23:45;2.10;;;2.10;;
673;SDS011;319;48.764;9.174;2023-01-06T16:26:14;2.00;;;2.00;;
673;SDS011;319;48.764;9.174;2023-01-06T16:28:44;1.90;;;1.90;;
673;SDS011;319;48.764;9.174;2023-01-06T16:31:13;1.93;;;1.93;;